createdAt,value
2023-04-09T00:01:41.013Z,4.06
2023-04-09T00:07:46.147Z,4.06
2023-04-09T00:13:50.629Z,4.06
2023-04-09T00:17:53.963Z,4.06
2023-04-09T00:23:58.618Z,4.05
2023-04-09T00:28:02.137Z,4.05
2023-04-09T00:30:03.549Z,4.05
2023-04-09T00:34:06.909Z,4.05
2023-04-09T00:38:09.827Z,4.05
2023-04-09T00:40:11.393Z,4.06
2023-04-09T00:44:14.096Z,4.05
2023-04-09T00:50:18.872Z,4.05
2023-04-09T00:56:23.419Z,4.05
2023-04-09T01:00:26.384Z,4.04
2023-04-09T01:06:30.282Z,4.05
2023-04-09T01:10:33.057Z,4.05
2023-04-09T01:12:34.198Z,4.05
2023-04-09T01:16:37.664Z,4.04
2023-04-09T01:20:40.616Z,4.05
2023-04-09T01:22:41.862Z,4.04
2023-04-09T01:26:44.665Z,4.04
2023-04-09T01:32:49.312Z,4.04
2023-04-09T01:38:54.113Z,4.04
2023-04-09T01:42:56.803Z,4.03
2023-04-09T01:49:00.420Z,4.03
2023-04-09T01:53:02.958Z,4.04
2023-04-09T01:55:04.226Z,4.03
2023-04-09T01:59:06.709Z,4.03
2023-04-09T02:03:10.525Z,4.03
2023-04-09T02:05:12.169Z,4.02
2023-04-09T02:09:14.544Z,4.03
2023-04-09T02:13:17.918Z,4.02
2023-04-09T02:15:19.771Z,4.03
2023-04-09T02:19:22.065Z,4.03
2023-04-09T02:21:23.906Z,4.03
2023-04-09T02:23:25.670Z,4.03
2023-04-09T02:25:26.715Z,4.02
2023-04-09T02:31:31.262Z,4.02
2023-04-09T02:33:32.731Z,4.02
2023-04-09T02:37:36.146Z,4.02
2023-04-09T02:41:39.116Z,4.02
2023-04-09T02:47:43.462Z,4.01
2023-04-09T02:51:45.785Z,4.02
2023-04-09T02:57:50.771Z,4.02
2023-04-09T03:01:53.765Z,4.02
2023-04-09T03:03:55.179Z,4.02
2023-04-09T03:07:58.050Z,4.02
2023-04-09T03:14:02.512Z,4.02
2023-04-09T03:20:07.510Z,4.02
2023-04-09T03:24:11.109Z,4.02
2023-04-09T03:30:15.522Z,4.02
2023-04-09T03:34:17.687Z,4.02
2023-04-09T03:36:19.498Z,4.02
2023-04-09T03:40:22.021Z,4.01
2023-04-09T03:44:25.363Z,4.02
2023-04-09T03:46:36.860Z,4.01
2023-04-09T03:50:29.391Z,4.01
2023-04-09T03:56:33.979Z,4.01
2023-04-09T04:02:38.944Z,4.01
2023-04-09T04:06:41.783Z,4.01
2023-04-09T04:12:46.233Z,4.01
2023-04-09T04:16:48.780Z,4.01
2023-04-09T04:18:50.562Z,4.01
2023-04-09T04:22:52.509Z,4.01
2023-04-09T04:26:55.758Z,4
2023-04-09T04:28:56.866Z,4.01
2023-04-09T04:32:59.333Z,4.01
2023-04-09T04:39:03.336Z,4.01
2023-04-09T04:43:05.704Z,4
2023-04-09T04:45:07.137Z,4
2023-04-09T04:49:10.353Z,4
2023-04-09T04:55:14.805Z,4
2023-04-09T04:59:18.554Z,4
2023-04-09T05:01:20.472Z,4
2023-04-09T05:05:23.565Z,4
2023-04-09T05:09:26.755Z,4
2023-04-09T05:11:27.826Z,4
2023-04-09T05:15:30.662Z,4
2023-04-09T05:19:33.715Z,4
2023-04-09T05:21:34.751Z,4
2023-04-09T05:25:37.488Z,4
2023-04-09T05:27:38.541Z,4
2023-04-09T05:29:39.548Z,4
2023-04-09T05:31:40.992Z,4
2023-04-09T05:37:45.788Z,4
2023-04-09T05:43:48.741Z,4
2023-04-09T05:47:51.546Z,4
2023-04-09T05:53:56.331Z,4.01
2023-04-09T05:57:59.036Z,4.01
2023-04-09T06:00:00.650Z,4.01
2023-04-09T06:04:03.564Z,4.01
2023-04-09T06:08:05.881Z,4.01
2023-04-09T06:10:07.410Z,4.01
2023-04-09T06:14:09.544Z,4.01
2023-04-09T06:20:13.673Z,4.01
2023-04-09T06:25:00.544Z,4.01
2023-04-09T06:31:04.900Z,4.02
2023-04-09T06:35:09.201Z,4.02
2023-04-09T06:37:09.685Z,4.02
2023-04-09T06:41:21.628Z,4.02
2023-04-09T06:45:15.501Z,4.02
2023-04-09T06:47:17.203Z,4.03
2023-04-09T06:51:19.787Z,4.03
2023-04-09T06:57:24.060Z,4.04
2023-04-09T07:01:26.438Z,4.04
2023-04-09T07:03:28.424Z,4.07
2023-04-09T07:07:41.066Z,4.08
2023-04-09T07:13:35.080Z,4.09
2023-04-09T07:19:40.240Z,4.1
2023-04-09T07:23:42.370Z,4.1
2023-04-09T07:29:46.036Z,4.12
2023-04-09T07:33:48.788Z,4.12
2023-04-09T07:37:52.088Z,4.13
2023-04-09T07:39:53.575Z,4.13
2023-04-09T07:43:56.885Z,4.14
2023-04-09T07:45:58.105Z,4.14
2023-04-09T07:47:59.071Z,4.14
2023-04-09T07:50:00.275Z,4.14
2023-04-09T07:56:05.238Z,4.15
2023-04-09T07:58:06.242Z,4.16
2023-04-09T08:02:09.130Z,4.16
2023-04-09T08:12:15.907Z,4.17
2023-04-09T08:16:17.914Z,4.18
2023-04-09T08:18:20.519Z,4.18
2023-04-09T08:22:23.684Z,4.19
2023-04-09T08:26:25.601Z,4.19
2023-04-09T08:28:27.065Z,4.19
2023-04-09T08:32:29.242Z,4.19
2023-04-09T08:38:33.396Z,4.19
2023-04-09T08:44:36.933Z,4.19
2023-04-09T08:48:39.515Z,4.2
2023-04-09T08:54:43.042Z,4.2
2023-04-09T08:58:46.216Z,4.2
2023-04-09T09:00:47.833Z,4.2
2023-04-09T09:04:50.299Z,4.2
2023-04-09T09:08:52.546Z,4.2
2023-04-09T09:10:53.925Z,4.2
2023-04-09T09:14:56.628Z,4.2
2023-04-09T09:18:59.846Z,4.2
2023-04-09T09:21:01.320Z,4.2
2023-04-09T09:25:03.485Z,4.2
2023-04-09T09:27:04.837Z,4.2
2023-04-09T09:31:07.778Z,4.2
2023-04-09T09:37:11.823Z,4.2
2023-04-09T09:43:15.225Z,4.19
2023-04-09T09:47:17.734Z,4.19
2023-04-09T09:53:21.382Z,4.19
2023-04-09T09:57:24.725Z,4.19
2023-04-09T09:59:25.718Z,4.19
2023-04-09T10:03:27.937Z,4.19
2023-04-09T10:07:30.876Z,4.19
2023-04-09T10:09:32.183Z,4.18
2023-04-09T10:13:35.232Z,4.18
2023-04-09T10:19:38.905Z,4.18
2023-04-09T10:25:42.236Z,4.18
2023-04-09T10:29:44.829Z,4.18
2023-04-09T10:35:48.542Z,4.18
2023-04-09T10:39:50.593Z,4.17
2023-04-09T10:41:51.862Z,4.18
2023-04-09T10:45:54.786Z,4.18
2023-04-09T10:49:57.407Z,4.17
2023-04-09T10:51:58.959Z,4.17
2023-04-09T10:56:01.506Z,4.17
2023-04-09T11:02:05.645Z,4.17
2023-04-09T11:06:08.237Z,4.17
2023-04-09T11:08:09.963Z,4.17
2023-04-09T11:10:11.600Z,4.17
2023-04-09T11:12:12.617Z,4.17
2023-04-09T11:18:16.512Z,4.17
2023-04-09T11:24:20.488Z,4.17
2023-04-09T11:28:23.124Z,4.17
2023-04-09T11:34:28.895Z,4.17
2023-04-09T11:38:32.352Z,4.17
2023-04-09T11:42:34.769Z,4.17
2023-04-09T11:44:35.917Z,4.17
2023-04-09T11:48:38.187Z,4.16
2023-04-09T11:50:39.188Z,4.16
2023-04-09T11:54:43.003Z,4.16
2023-04-09T12:00:47.218Z,4.17
2023-04-09T12:06:50.454Z,4.17
2023-04-09T12:10:53.771Z,4.16
2023-04-09T12:16:57.057Z,4.16
2023-04-09T12:20:59.556Z,4.16
2023-04-09T12:23:01.143Z,4.16
2023-04-09T12:27:03.506Z,4.16
2023-04-09T12:31:07.040Z,4.16
2023-04-09T12:33:10.365Z,4.16
2023-04-09T12:37:10.934Z,4.16
2023-04-09T12:43:14.814Z,4.16
2023-04-09T12:49:18.857Z,4.16
2023-04-09T12:53:22.424Z,4.16
2023-04-09T12:59:26.019Z,4.16
2023-04-09T13:03:30.122Z,4.16
2023-04-09T13:05:29.635Z,4.15
2023-04-09T13:09:32.289Z,4.16
2023-04-09T13:10:16.070Z,4.15
2023-04-09T13:14:19.105Z,4.15
2023-04-09T13:18:21.928Z,4.15
2023-04-09T13:20:23.232Z,4.15
2023-04-09T13:24:25.253Z,4.15
2023-04-09T13:26:26.818Z,4.15
2023-04-09T13:28:28.505Z,4.15
2023-04-09T13:30:29.670Z,4.15
2023-04-09T13:36:34.035Z,4.18
2023-04-09T13:38:35.508Z,4.18
2023-04-09T13:42:38.098Z,4.18
2023-04-09T13:46:40.653Z,4.19
2023-04-09T13:52:45.011Z,4.19
2023-04-09T13:56:48.444Z,4.19
2023-04-09T13:58:50.222Z,4.19
2023-04-09T14:02:52.845Z,4.2
2023-04-09T14:06:55.722Z,4.2
2023-04-09T14:08:57.070Z,4.2
2023-04-09T14:13:00.128Z,4.19
2023-04-09T14:19:03.880Z,4.2
2023-04-09T14:25:07.550Z,4.2
2023-04-09T14:29:10.095Z,4.2
2023-04-09T14:35:13.720Z,4.2
2023-04-09T14:39:17.096Z,4.19
2023-04-09T14:41:18.216Z,4.19
2023-04-09T14:45:20.792Z,4.19
2023-04-09T14:49:24.773Z,4.19
2023-04-09T14:51:24.661Z,4.19
2023-04-09T14:55:27.041Z,4.19
2023-04-09T15:01:33.026Z,4.19
2023-04-09T15:07:35.566Z,4.19
2023-04-09T15:11:37.662Z,4.18
2023-04-09T15:17:42.589Z,4.17
2023-04-09T15:21:44.682Z,4.18
2023-04-09T15:23:45.862Z,4.18
2023-04-09T15:27:47.704Z,4.18
2023-04-09T15:31:50.487Z,4.17
2023-04-09T15:33:52.031Z,4.17
2023-04-09T15:37:55.104Z,4.18
2023-04-09T15:41:57.673Z,4.17
2023-04-09T15:43:58.883Z,4.18
2023-04-09T15:48:01.931Z,4.17
2023-04-09T15:50:03.166Z,4.17
2023-04-09T15:52:04.478Z,4.17
2023-04-09T15:54:05.941Z,4.17
2023-04-09T16:00:09.128Z,4.17
2023-04-09T16:02:10.563Z,4.17
2023-04-09T16:06:12.907Z,4.17
2023-04-09T16:10:15.163Z,4.17
2023-04-09T16:16:27.839Z,4.17
2023-04-09T16:20:21.611Z,4.17
2023-04-09T16:22:22.817Z,4.17
2023-04-09T16:26:26.007Z,4.16
2023-04-09T16:30:28.937Z,4.17
2023-04-09T16:32:30.272Z,4.17
2023-04-09T16:38:35.930Z,4.16
2023-04-09T16:42:38.316Z,4.17
2023-04-09T16:48:43.759Z,4.16
2023-04-09T16:52:46.896Z,4.16
2023-04-09T16:56:50.611Z,4.16
2023-04-09T16:58:52.603Z,4.16
2023-04-09T17:02:54.441Z,4.16
2023-04-09T17:04:55.913Z,4.16
2023-04-09T17:06:57.549Z,4.16
2023-04-09T17:08:58.528Z,4.16
2023-04-09T17:15:02.844Z,4.16
2023-04-09T17:17:04.525Z,4.16
2023-04-09T17:21:06.683Z,4.16
2023-04-09T17:25:08.979Z,4.16
2023-04-09T17:31:13.154Z,4.16
2023-04-09T17:35:16.163Z,4.15
2023-04-09T17:37:17.337Z,4.15
2023-04-09T17:41:20.352Z,4.15
2023-04-09T17:45:23.763Z,4.15
2023-04-09T17:47:25.276Z,4.15
2023-04-09T17:51:27.621Z,4.15
2023-04-09T17:57:32.340Z,4.15
2023-04-09T18:03:36.527Z,4.15
2023-04-09T18:07:38.914Z,4.15
2023-04-09T18:13:43.161Z,4.14
2023-04-09T18:17:46.420Z,4.14
2023-04-09T18:19:47.405Z,4.14
2023-04-09T18:23:50.267Z,4.14
2023-04-09T18:27:53.993Z,4.14
2023-04-09T18:29:55.631Z,4.14
2023-04-09T18:33:58.761Z,4.14
2023-04-09T18:40:03.092Z,4.14
2023-04-09T18:46:07.580Z,4.14
2023-04-09T18:50:09.481Z,4.14
2023-04-09T18:56:12.785Z,4.14
2023-04-09T19:00:15.366Z,4.14
2023-04-09T19:02:17.244Z,4.14
2023-04-09T19:06:20.102Z,4.14
2023-04-09T19:10:23.479Z,4.14
2023-04-09T19:12:24.860Z,4.14
2023-04-09T19:16:28.081Z,4.14
2023-04-09T19:20:30.707Z,4.13
2023-04-09T19:22:32.177Z,4.13
2023-04-09T19:26:34.938Z,4.13
2023-04-09T19:28:36.648Z,4.13
2023-04-09T19:32:38.767Z,4.13
2023-04-09T19:38:43.423Z,4.13
2023-04-09T19:44:47.302Z,4.13
2023-04-09T19:48:50.568Z,4.13
2023-04-09T19:54:55.547Z,4.13
2023-04-09T19:55:39.459Z,4.12
2023-04-09T19:59:42.906Z,4.12
2023-04-09T20:03:46.201Z,4.11
2023-04-09T20:05:47.733Z,4.12
2023-04-09T20:07:49.111Z,4.12
2023-04-09T20:09:50.150Z,4.12
2023-04-09T20:15:53.744Z,4.12
2023-04-09T20:21:58.524Z,4.12
2023-04-09T20:26:00.993Z,4.12
2023-04-09T20:32:04.313Z,4.12
2023-04-09T20:36:06.633Z,4.12
2023-04-09T20:38:08.078Z,4.12
2023-04-09T20:42:11.223Z,4.12
2023-04-09T20:46:14.208Z,4.11
2023-04-09T20:48:15.924Z,4.12
2023-04-09T20:52:19.324Z,4.12
2023-04-09T20:58:23.034Z,4.11
2023-04-09T21:04:27.663Z,4.11
2023-04-09T21:08:29.696Z,4.11
2023-04-09T21:14:34.635Z,4.11
2023-04-09T21:20:39.281Z,4.11
2023-04-09T21:24:42.250Z,4.11
2023-04-09T21:28:44.879Z,4.11
2023-04-09T21:30:46.405Z,4.11
2023-04-09T21:34:49.443Z,4.11
2023-04-09T21:38:52.842Z,4.11
2023-04-09T21:40:53.759Z,4.11
2023-04-09T21:44:56.877Z,4.11
2023-04-09T21:46:58.046Z,4.1
2023-04-09T21:48:59.457Z,4.1
2023-04-09T21:51:01.356Z,4.1
2023-04-09T21:57:05.486Z,4.1
2023-04-09T21:59:06.741Z,4.1
2023-04-09T22:03:10.283Z,4.1
2023-04-09T22:07:14.062Z,4.1
2023-04-09T22:13:18.937Z,4.1
2023-04-09T22:17:21.470Z,4.1
2023-04-09T22:23:26.808Z,4.1
2023-04-09T22:27:29.929Z,4.1
2023-04-09T22:29:31.316Z,4.1
2023-04-09T22:31:32.757Z,4.1
2023-04-09T22:33:34.060Z,4.1
2023-04-09T22:39:37.969Z,4.09
2023-04-09T22:45:42.730Z,4.1
2023-04-09T22:49:45.172Z,4.1
2023-04-09T22:55:49.670Z,4.09
2023-04-09T22:59:52.884Z,4.09
2023-04-09T23:01:54.470Z,4.09
2023-04-09T23:05:57.062Z,4.09
2023-04-09T23:09:59.593Z,4.09
2023-04-09T23:12:01.457Z,4.09
2023-04-09T23:16:04.420Z,4.09
2023-04-09T23:22:08.373Z,4.09
2023-04-09T23:28:13.425Z,4.09
2023-04-09T23:32:16.553Z,4.08
2023-04-09T23:38:21.548Z,4.08
2023-04-09T23:42:24.727Z,4.08
2023-04-09T23:44:26.235Z,4.08
2023-04-09T23:48:28.933Z,4.08
2023-04-09T23:52:32.327Z,4.08
2023-04-09T23:54:33.312Z,4.08
2023-04-09T23:58:36.516Z,4.08
